createdAt,value
2023-05-06T00:00:10.873Z,23.30
2023-05-06T00:03:00.359Z,23.20
2023-05-06T00:05:49.791Z,23.20
2023-05-06T00:08:37.344Z,23.10
2023-05-06T00:11:24.875Z,22.80
2023-05-06T00:14:13.336Z,22.90
2023-05-06T00:17:00.767Z,22.90
2023-05-06T00:19:48.214Z,23.00
2023-05-06T00:22:35.660Z,23.00
2023-05-06T00:25:23.142Z,23.00
2023-05-06T00:28:10.668Z,22.80
2023-05-06T00:30:58.118Z,22.70
2023-05-06T00:33:45.663Z,22.80
2023-05-06T00:36:33.528Z,22.60
2023-05-06T00:39:21.296Z,22.60
2023-05-06T00:42:08.787Z,22.60
2023-05-06T00:44:56.229Z,22.50
2023-05-06T00:47:44.959Z,22.60
2023-05-06T00:50:34.669Z,22.50
2023-05-06T00:53:22.351Z,22.60
2023-05-06T00:56:10.017Z,22.40
2023-05-06T00:58:58.023Z,22.40
2023-05-06T01:01:45.852Z,22.30
2023-05-06T01:04:33.749Z,22.20
2023-05-06T01:07:34.568Z,22.30
2023-05-06T01:10:36.787Z,22.30
2023-05-06T01:13:43.483Z,22.20
2023-05-06T01:16:38.552Z,22.20
2023-05-06T01:19:49.262Z,22.20
2023-05-06T01:22:39.034Z,22.20
2023-05-06T01:25:26.520Z,22.20
2023-05-06T01:28:14.499Z,22.20
2023-05-06T01:31:12.329Z,22.10
2023-05-06T01:34:15.797Z,22.10
2023-05-06T01:37:39.858Z,22.10
2023-05-06T01:40:30.774Z,22.10
2023-05-06T01:43:21.752Z,22.10
2023-05-06T01:46:18.394Z,22.10
2023-05-06T01:49:11.635Z,22.10
2023-05-06T01:51:59.181Z,22.10
2023-05-06T01:54:46.731Z,22.00
2023-05-06T01:57:34.164Z,22.10
2023-05-06T02:00:21.800Z,22.00
2023-05-06T02:03:09.380Z,22.00
2023-05-06T02:05:57.028Z,22.00
2023-05-06T02:08:44.517Z,22.00
2023-05-06T02:11:31.972Z,22.00
2023-05-06T02:14:19.468Z,22.00
2023-05-06T02:17:07.493Z,22.00
2023-05-06T02:19:54.976Z,21.90
2023-05-06T02:22:42.495Z,22.10
2023-05-06T02:25:30.211Z,22.10
2023-05-06T02:28:17.877Z,22.10
2023-05-06T02:31:06.098Z,22.00
2023-05-06T02:33:53.650Z,21.90
2023-05-06T02:36:41.106Z,21.90
2023-05-06T02:39:28.594Z,21.90
2023-05-06T02:42:16.646Z,21.90
2023-05-06T02:45:04.846Z,21.90
2023-05-06T02:47:52.278Z,21.80
2023-05-06T02:50:39.802Z,21.90
2023-05-06T02:53:27.258Z,21.90
2023-05-06T02:56:14.744Z,21.90
2023-05-06T02:59:02.179Z,21.90
2023-05-06T03:01:49.704Z,21.80
2023-05-06T03:04:37.336Z,21.80
2023-05-06T03:07:24.919Z,21.80
2023-05-06T03:10:12.488Z,21.80
2023-05-06T03:13:00.168Z,21.70
2023-05-06T03:15:54.336Z,21.70
2023-05-06T03:18:41.826Z,21.70
2023-05-06T03:21:29.707Z,21.70
2023-05-06T03:24:17.181Z,21.80
2023-05-06T03:27:04.593Z,21.80
2023-05-06T03:29:52.067Z,21.90
2023-05-06T03:32:39.577Z,21.90
2023-05-06T03:35:27.119Z,21.90
2023-05-06T03:38:14.677Z,21.90
2023-05-06T03:41:02.169Z,21.90
2023-05-06T03:43:49.625Z,21.80
2023-05-06T03:46:39.074Z,21.90
2023-05-06T03:49:26.924Z,21.80
2023-05-06T03:52:14.472Z,21.80
2023-05-06T03:55:01.973Z,21.90
2023-05-06T03:57:49.758Z,21.90
2023-05-06T04:00:37.228Z,21.70
2023-05-06T04:03:24.731Z,21.80
2023-05-06T04:06:12.765Z,21.90
2023-05-06T04:09:00.303Z,22.00
2023-05-06T04:11:47.857Z,21.90
2023-05-06T04:14:35.434Z,21.90
2023-05-06T04:17:22.945Z,22.10
2023-05-06T04:20:11.587Z,22.20
2023-05-06T04:22:59.180Z,22.20
2023-05-06T04:25:48.762Z,22.20
2023-05-06T04:28:36.423Z,22.30
2023-05-06T04:31:25.131Z,22.30
2023-05-06T04:34:12.722Z,22.30
2023-05-06T04:37:00.219Z,22.40
2023-05-06T04:39:47.700Z,22.40
2023-05-06T04:42:35.158Z,22.40
2023-05-06T04:45:26.322Z,22.50
2023-05-06T04:48:13.853Z,22.60
2023-05-06T04:51:01.488Z,22.60
2023-05-06T04:53:48.935Z,22.70
2023-05-06T04:56:36.460Z,22.80
2023-05-06T04:59:24.044Z,22.80
2023-05-06T05:02:11.828Z,22.80
2023-05-06T05:04:59.334Z,23.00
2023-05-06T05:07:46.740Z,22.90
2023-05-06T05:10:34.361Z,22.90
2023-05-06T05:13:22.035Z,23.00
2023-05-06T05:16:09.729Z,23.00
2023-05-06T05:18:57.349Z,23.10
2023-05-06T05:21:44.822Z,23.10
2023-05-06T05:24:32.257Z,23.00
2023-05-06T05:27:20.708Z,23.10
2023-05-06T05:30:09.337Z,23.20
2023-05-06T05:32:56.877Z,23.40
2023-05-06T05:35:44.528Z,23.40
2023-05-06T05:38:32.493Z,23.40
2023-05-06T05:41:19.943Z,23.50
2023-05-06T05:44:07.409Z,23.70
2023-05-06T05:46:54.942Z,23.80
2023-05-06T05:49:42.624Z,24.20
2023-05-06T05:52:30.504Z,24.40
2023-05-06T05:55:18.149Z,24.70
2023-05-06T05:58:05.659Z,25.10
2023-05-06T06:00:53.264Z,25.40
2023-05-06T06:03:42.341Z,25.70
2023-05-06T06:06:30.039Z,25.90
2023-05-06T06:09:17.874Z,25.90
2023-05-06T06:12:05.880Z,25.80
2023-05-06T06:14:53.322Z,25.80
2023-05-06T06:17:41.475Z,26.10
2023-05-06T06:20:29.343Z,26.40
2023-05-06T06:23:17.041Z,25.90
2023-05-06T06:26:04.777Z,26.10
2023-05-06T06:28:52.275Z,26.10
2023-05-06T06:31:40.660Z,26.30
2023-05-06T06:34:28.532Z,26.50
2023-05-06T06:37:15.936Z,26.30
2023-05-06T06:40:03.667Z,26.20
2023-05-06T06:42:51.307Z,26.60
2023-05-06T06:45:38.862Z,26.70
2023-05-06T06:48:26.452Z,26.20
2023-05-06T06:51:13.984Z,25.90
2023-05-06T06:54:01.621Z,26.20
2023-05-06T06:56:49.122Z,26.40
2023-05-06T06:59:36.602Z,26.40
2023-05-06T07:02:24.178Z,26.50
2023-05-06T07:05:11.913Z,27.00
2023-05-06T07:07:59.583Z,26.70
2023-05-06T07:10:47.228Z,26.60
2023-05-06T07:13:35.663Z,26.50
2023-05-06T07:16:23.094Z,26.90
2023-05-06T07:19:10.760Z,26.80
2023-05-06T07:21:58.327Z,26.50
2023-05-06T07:24:45.856Z,26.70
2023-05-06T07:27:33.298Z,27.10
2023-05-06T07:30:23.213Z,27.50
2023-05-06T07:33:11.221Z,27.80
2023-05-06T07:35:58.636Z,27.70
2023-05-06T07:38:46.103Z,27.50
2023-05-06T07:41:33.849Z,27.60
2023-05-06T07:44:21.309Z,27.60
2023-05-06T07:47:08.857Z,27.50
2023-05-06T07:49:57.343Z,27.60
2023-05-06T07:52:44.946Z,27.80
2023-05-06T07:55:33.910Z,27.40
2023-05-06T07:58:22.911Z,27.50
2023-05-06T08:01:10.617Z,27.20
2023-05-06T08:03:58.434Z,27.50
2023-05-06T08:06:46.267Z,27.70
2023-05-06T08:09:33.742Z,28.00
2023-05-06T08:12:21.360Z,27.70
2023-05-06T08:15:10.066Z,27.60
2023-05-06T08:18:02.121Z,28.10
2023-05-06T08:20:54.938Z,28.40
2023-05-06T08:23:42.476Z,28.10
2023-05-06T08:26:29.984Z,28.60
2023-05-06T08:29:17.522Z,28.60
2023-05-06T08:32:05.308Z,28.00
2023-05-06T08:34:52.883Z,28.40
2023-05-06T08:37:41.948Z,28.80
2023-05-06T08:40:33.759Z,29.00
2023-05-06T08:43:22.303Z,28.50
2023-05-06T08:46:10.108Z,27.50
2023-05-06T08:48:59.475Z,27.70
2023-05-06T08:51:52.580Z,28.50
2023-05-06T08:54:42.109Z,27.40
2023-05-06T08:57:32.309Z,28.30
2023-05-06T09:00:19.958Z,29.00
2023-05-06T09:03:07.627Z,29.10
2023-05-06T09:05:57.307Z,29.30
2023-05-06T09:08:44.845Z,29.50
2023-05-06T09:11:32.379Z,29.60
2023-05-06T09:14:21.722Z,29.70
2023-05-06T09:17:24.574Z,29.40
2023-05-06T09:20:12.939Z,29.40
2023-05-06T09:23:01.697Z,29.20
2023-05-06T09:25:51.243Z,29.10
2023-05-06T09:28:39.751Z,28.50
2023-05-06T09:31:28.864Z,28.70
2023-05-06T09:34:17.984Z,29.30
2023-05-06T09:37:05.730Z,29.20
2023-05-06T09:39:58.768Z,29.50
2023-05-06T09:42:47.469Z,29.80
2023-05-06T09:45:36.501Z,29.50
2023-05-06T09:48:30.073Z,27.70
2023-05-06T09:51:18.910Z,28.60
2023-05-06T09:54:07.529Z,28.30
2023-05-06T09:56:57.552Z,29.20
2023-05-06T09:59:49.023Z,29.70
2023-05-06T10:02:37.859Z,29.80
2023-05-06T10:05:27.419Z,30.00
2023-05-06T10:08:18.796Z,29.90
2023-05-06T10:11:08.725Z,30.00
2023-05-06T10:13:56.887Z,31.00
2023-05-06T10:16:47.308Z,30.80
2023-05-06T10:19:35.656Z,30.80
2023-05-06T10:22:44.090Z,30.60
2023-05-06T10:25:44.015Z,28.80
2023-05-06T10:28:33.292Z,29.20
2023-05-06T10:31:20.886Z,28.00
2023-05-06T10:34:09.529Z,29.60
2023-05-06T10:37:00.439Z,29.80
2023-05-06T10:39:48.672Z,30.20
2023-05-06T10:42:36.249Z,29.70
2023-05-06T10:45:23.768Z,30.00
2023-05-06T10:48:11.783Z,30.10
2023-05-06T10:51:17.443Z,30.40
2023-05-06T10:54:05.639Z,30.30
2023-05-06T10:56:53.109Z,30.10
2023-05-06T10:59:47.093Z,31.00
2023-05-06T11:02:34.693Z,31.60
2023-05-06T11:05:23.901Z,29.50
2023-05-06T11:08:11.749Z,30.80
2023-05-06T11:10:59.208Z,31.40
2023-05-06T11:13:53.570Z,31.50
2023-05-06T11:16:49.530Z,32.00
2023-05-06T11:19:39.257Z,32.30
2023-05-06T11:22:41.168Z,31.50
2023-05-06T11:25:43.294Z,31.70
2023-05-06T11:28:31.042Z,31.60
2023-05-06T11:31:21.525Z,31.10
2023-05-06T11:34:13.072Z,29.90
2023-05-06T11:37:06.837Z,30.80
2023-05-06T11:39:54.829Z,31.00
2023-05-06T11:42:42.322Z,30.30
2023-05-06T11:45:47.258Z,30.60
2023-05-06T11:48:34.699Z,30.90
2023-05-06T11:51:23.214Z,29.20
2023-05-06T11:54:11.405Z,30.10
2023-05-06T11:56:58.877Z,30.50
2023-05-06T11:59:46.446Z,31.10
2023-05-06T12:02:33.960Z,31.50
2023-05-06T12:05:23.873Z,31.10
2023-05-06T12:08:20.002Z,31.50
2023-05-06T12:11:14.221Z,32.40
2023-05-06T12:14:05.822Z,32.40
2023-05-06T12:16:55.975Z,32.30
2023-05-06T12:19:43.781Z,31.60
2023-05-06T12:22:31.270Z,32.00
2023-05-06T12:25:19.589Z,32.30
2023-05-06T12:28:26.989Z,32.10
2023-05-06T12:31:22.763Z,32.20
2023-05-06T12:34:10.984Z,30.90
2023-05-06T12:36:58.453Z,30.90
2023-05-06T12:39:46.028Z,31.30
2023-05-06T12:42:33.554Z,31.30
2023-05-06T12:45:22.053Z,32.20
2023-05-06T12:48:17.002Z,32.20
2023-05-06T12:51:21.889Z,32.50
2023-05-06T12:54:30.707Z,32.10
2023-05-06T12:57:18.411Z,32.30
2023-05-06T13:00:07.488Z,32.50
2023-05-06T13:02:55.161Z,32.70
2023-05-06T13:05:42.632Z,32.60
2023-05-06T13:08:30.102Z,32.50
2023-05-06T13:11:17.543Z,32.00
2023-05-06T13:14:05.051Z,31.30
2023-05-06T13:16:53.641Z,32.20
2023-05-06T13:19:41.262Z,32.40
2023-05-06T13:22:28.732Z,31.70
2023-05-06T13:25:16.291Z,31.30
2023-05-06T13:28:03.760Z,32.10
2023-05-06T13:30:52.787Z,32.20
2023-05-06T13:33:40.271Z,32.40
2023-05-06T13:36:28.105Z,32.60
2023-05-06T13:39:16.272Z,32.40
2023-05-06T13:42:06.741Z,32.80
2023-05-06T13:44:55.578Z,32.90
2023-05-06T13:47:44.205Z,33.00
2023-05-06T13:50:31.656Z,33.00
2023-05-06T13:53:20.014Z,33.50
2023-05-06T13:56:07.897Z,32.70
2023-05-06T13:58:55.800Z,33.00
2023-05-06T14:01:43.370Z,32.20
2023-05-06T14:04:31.083Z,32.60
2023-05-06T14:07:18.613Z,32.50
2023-05-06T14:10:06.816Z,32.40
2023-05-06T14:12:54.474Z,32.80
2023-05-06T14:15:42.050Z,32.80
2023-05-06T14:18:31.481Z,32.80
2023-05-06T14:21:19.018Z,32.80
2023-05-06T14:24:08.019Z,33.30
2023-05-06T14:26:55.801Z,33.30
2023-05-06T14:29:43.395Z,32.30
2023-05-06T14:32:32.531Z,32.80
2023-05-06T14:35:20.189Z,32.70
2023-05-06T14:38:08.151Z,32.60
2023-05-06T14:40:56.712Z,32.70
2023-05-06T14:43:45.656Z,32.70
2023-05-06T14:46:33.413Z,32.30
2023-05-06T14:49:21.327Z,33.00
2023-05-06T14:52:08.883Z,33.10
2023-05-06T14:54:56.326Z,33.00
2023-05-06T14:57:43.929Z,33.30
2023-05-06T15:00:31.593Z,32.90
2023-05-06T15:03:19.147Z,33.10
2023-05-06T15:06:06.822Z,33.10
2023-05-06T15:08:54.547Z,33.20
2023-05-06T15:11:42.107Z,33.00
2023-05-06T15:14:29.578Z,33.50
2023-05-06T15:17:17.055Z,33.50
2023-05-06T15:20:07.025Z,32.50
2023-05-06T15:22:54.473Z,31.20
2023-05-06T15:25:42.230Z,30.70
2023-05-06T15:28:29.972Z,32.00
2023-05-06T15:31:17.472Z,32.40
2023-05-06T15:34:10.989Z,31.80
2023-05-06T15:37:01.658Z,32.10
2023-05-06T15:39:49.316Z,32.10
2023-05-06T15:42:39.209Z,31.40
2023-05-06T15:45:27.284Z,31.00
2023-05-06T15:48:14.720Z,31.60
2023-05-06T15:51:02.210Z,30.40
2023-05-06T15:53:49.980Z,30.00
2023-05-06T15:56:40.954Z,30.50
2023-05-06T15:59:29.482Z,30.80
2023-05-06T16:05:09.830Z,31.10
2023-05-06T16:07:57.674Z,30.30
2023-05-06T16:10:45.802Z,30.00
2023-05-06T16:13:34.515Z,30.10
2023-05-06T16:16:22.176Z,29.90
2023-05-06T16:19:10.010Z,30.60
2023-05-06T16:21:57.993Z,31.20
2023-05-06T16:24:45.552Z,31.40
2023-05-06T16:27:34.069Z,31.60
2023-05-06T16:30:22.413Z,31.60
2023-05-06T16:33:10.116Z,31.20
2023-05-06T16:35:57.752Z,31.60
2023-05-06T16:38:45.244Z,31.70
2023-05-06T16:41:32.833Z,31.70
2023-05-06T16:44:20.374Z,31.40
2023-05-06T16:47:08.030Z,31.30
2023-05-06T16:49:55.834Z,31.10
2023-05-06T16:52:43.572Z,31.00
2023-05-06T16:55:31.124Z,30.80
2023-05-06T16:58:18.583Z,31.00
2023-05-06T17:01:09.812Z,30.80
2023-05-06T17:03:57.362Z,30.80
2023-05-06T17:06:44.886Z,31.20
2023-05-06T17:09:32.340Z,31.20
2023-05-06T17:12:23.834Z,31.60
2023-05-06T17:15:12.208Z,31.30
2023-05-06T17:18:00.025Z,31.30
2023-05-06T17:20:54.817Z,30.80
2023-05-06T17:23:44.289Z,30.30
2023-05-06T17:26:34.126Z,30.40
2023-05-06T17:29:22.290Z,30.30
2023-05-06T17:32:11.284Z,30.20
2023-05-06T17:34:58.775Z,30.00
2023-05-06T17:37:46.573Z,29.80
2023-05-06T17:40:34.137Z,29.80
2023-05-06T17:43:21.571Z,29.50
2023-05-06T17:46:11.820Z,29.20
2023-05-06T17:48:59.556Z,29.10
2023-05-06T17:51:47.648Z,29.00
2023-05-06T17:54:36.589Z,28.60
2023-05-06T17:57:24.101Z,28.40
2023-05-06T18:00:12.266Z,28.20
2023-05-06T18:03:00.011Z,27.90
2023-05-06T18:05:47.784Z,27.70
2023-05-06T18:08:35.431Z,27.60
2023-05-06T18:11:24.088Z,27.40
2023-05-06T18:14:12.258Z,27.20
2023-05-06T18:16:59.819Z,27.00
2023-05-06T18:19:47.341Z,26.80
2023-05-06T18:22:35.204Z,26.60
2023-05-06T18:25:22.813Z,26.40
2023-05-06T18:28:10.453Z,26.30
2023-05-06T18:30:58.267Z,26.20
2023-05-06T18:33:45.775Z,26.00
2023-05-06T18:36:35.127Z,25.90
2023-05-06T18:39:26.145Z,25.90
2023-05-06T18:42:13.887Z,25.90
2023-05-06T18:45:03.108Z,25.70
2023-05-06T18:47:51.069Z,25.60
2023-05-06T18:50:38.621Z,25.40
2023-05-06T18:53:26.142Z,25.30
2023-05-06T18:56:14.375Z,25.20
2023-05-06T18:59:02.387Z,25.00
2023-05-06T19:01:49.807Z,24.90
2023-05-06T19:04:38.151Z,24.70
2023-05-06T19:07:26.325Z,24.60
2023-05-06T19:10:14.102Z,24.40
2023-05-06T19:13:01.829Z,24.30
2023-05-06T19:15:49.402Z,24.10
2023-05-06T19:18:36.968Z,24.00
2023-05-06T19:21:24.797Z,23.80
2023-05-06T19:24:12.250Z,23.90
2023-05-06T19:26:59.754Z,23.80
2023-05-06T19:29:48.430Z,23.80
2023-05-06T19:32:36.146Z,23.80
2023-05-06T19:35:23.681Z,23.70
2023-05-06T19:38:11.191Z,23.60
2023-05-06T19:40:58.622Z,23.60
2023-05-06T19:43:46.357Z,23.50
2023-05-06T19:46:33.964Z,23.50
2023-05-06T19:49:21.590Z,23.30
2023-05-06T19:52:09.163Z,23.30
2023-05-06T19:54:58.402Z,23.30
2023-05-06T19:57:45.970Z,23.20
2023-05-06T20:00:33.459Z,23.20
2023-05-06T20:03:21.038Z,23.20
2023-05-06T20:06:09.028Z,23.00
2023-05-06T20:08:56.498Z,22.90
2023-05-06T20:11:44.572Z,23.00
2023-05-06T20:14:32.107Z,22.90
2023-05-06T20:17:19.661Z,22.80
2023-05-06T20:20:11.697Z,22.70
2023-05-06T20:22:59.175Z,22.60
2023-05-06T20:25:46.595Z,22.60
2023-05-06T20:28:37.784Z,22.70
2023-05-06T20:31:25.607Z,22.60
2023-05-06T20:34:13.638Z,22.50
2023-05-06T20:37:01.666Z,22.50
2023-05-06T20:39:49.254Z,22.40
2023-05-06T20:42:37.517Z,22.30
2023-05-06T20:45:25.137Z,22.30
2023-05-06T20:48:14.889Z,22.30
2023-05-06T20:51:02.779Z,22.30
2023-05-06T20:53:50.251Z,22.30
2023-05-06T20:56:37.716Z,22.30
2023-05-06T20:59:27.066Z,22.30
2023-05-06T21:02:14.590Z,22.20
2023-05-06T21:05:02.327Z,22.20
2023-05-06T21:07:49.756Z,22.20
2023-05-06T21:10:37.283Z,22.20
2023-05-06T21:13:24.916Z,22.10
2023-05-06T21:16:12.578Z,22.10
2023-05-06T21:19:00.035Z,22.00
2023-05-06T21:21:47.691Z,22.40
2023-05-06T21:24:35.136Z,22.70
2023-05-06T21:27:22.644Z,22.90
2023-05-06T21:30:10.613Z,23.00
2023-05-06T21:32:58.447Z,23.00
2023-05-06T21:35:45.911Z,23.20
2023-05-06T21:38:33.402Z,23.00
2023-05-06T21:41:21.216Z,22.90
2023-05-06T21:44:10.187Z,23.00
2023-05-06T21:46:57.705Z,23.10
2023-05-06T21:49:45.511Z,23.10
2023-05-06T21:52:33.322Z,22.80
2023-05-06T21:55:20.930Z,22.90
2023-05-06T21:58:08.411Z,22.70
2023-05-06T22:00:55.885Z,22.70
2023-05-06T22:03:46.304Z,22.40
2023-05-06T22:06:34.044Z,22.30
2023-05-06T22:09:21.796Z,22.10
2023-05-06T22:12:11.671Z,22.00
2023-05-06T22:14:59.234Z,21.90
2023-05-06T22:17:46.727Z,21.70
2023-05-06T22:20:37.754Z,21.60
2023-05-06T22:23:26.007Z,21.50
2023-05-06T22:26:13.570Z,21.40
2023-05-06T22:29:01.068Z,21.40
2023-05-06T22:31:48.627Z,21.50
2023-05-06T22:34:36.215Z,21.60
2023-05-06T22:37:23.687Z,21.60
2023-05-06T22:40:12.088Z,21.70
2023-05-06T22:42:59.509Z,21.70
2023-05-06T22:45:46.976Z,21.80
2023-05-06T22:48:34.773Z,21.90
2023-05-06T22:51:22.249Z,22.00
2023-05-06T22:54:10.047Z,22.20
2023-05-06T22:56:57.509Z,22.30
2023-05-06T22:59:45.464Z,22.40
2023-05-06T23:02:33.124Z,22.50
2023-05-06T23:05:20.705Z,22.60
2023-05-06T23:08:08.181Z,22.50
2023-05-06T23:10:55.784Z,22.50
2023-05-06T23:13:43.266Z,22.40
2023-05-06T23:16:32.095Z,22.20
2023-05-06T23:19:21.550Z,22.10
2023-05-06T23:22:09.072Z,22.00
2023-05-06T23:24:56.515Z,21.90
2023-05-06T23:27:44.126Z,22.00
2023-05-06T23:30:31.601Z,22.10
2023-05-06T23:33:19.115Z,22.20
2023-05-06T23:36:07.168Z,22.20
2023-05-06T23:38:55.243Z,21.90
2023-05-06T23:41:42.744Z,21.90
2023-05-06T23:44:30.319Z,21.90
2023-05-06T23:47:18.579Z,21.70
2023-05-06T23:50:07.009Z,21.60
2023-05-06T23:52:54.557Z,21.50
2023-05-06T23:55:42.991Z,21.60
2023-05-06T23:58:30.463Z,21.70
